Time;durP1;ratioP1;P1;durP2;ratioP2;P2;SDS_P1;SDS_P2;PMS_P1;PMS_P2;Temp;Humidity;BMP_temperature;BMP_pressure;BME280_temperature;BME280_humidity;BME280_pressure;Samples;Min_cycle;Max_cycle;Signal;HPM_P1;HPM_P2
2022/10/14 00:00:59;;;;;;;41.58;16.48;;;;;;;;;;4988635;28;20022;-65
2022/10/14 00:03:24;;;;;;;41.40;14.60;;;;;;;;;;4980079;28;20083;-63
2022/10/14 00:05:50;;;;;;;44.07;16.23;;;;;;;;;;4983296;28;20113;-65
2022/10/14 00:08:15;;;;;;;43.53;16.60;;;;;;;;;;4972670;28;20874;-64
2022/10/14 00:10:40;;;;;;;40.63;15.25;;;;;;;;;;4981575;28;20252;-65
2022/10/14 00:13:05;;;;;;;38.95;16.83;;;;;;;;;;4979693;28;20052;-65
2022/10/14 00:15:31;;;;;;;38.15;15.32;;;;;;;;;;4985283;28;20077;-66
2022/10/14 00:17:56;;;;;;;42.88;14.30;;;;;;;;;;4967770;28;20076;-65
2022/10/14 00:20:21;;;;;;;36.58;15.38;;;;;;;;;;4984824;28;20053;-67
2022/10/14 00:22:46;;;;;;;34.10;15.73;;;;;;;;;;4991581;28;20067;-66
2022/10/14 00:25:11;;;;;;;39.22;16.17;;;;;;;;;;4973192;28;20033;-66
2022/10/14 00:27:37;;;;;;;45.87;14.97;;;;;;;;;;4980117;28;20109;-65
2022/10/14 00:30:02;;;;;;;36.47;15.60;;;;;;;;;;4987736;28;20264;-64
2022/10/14 00:32:27;;;;;;;44.55;16.02;;;;;;;;;;4975347;28;20117;-65
2022/10/14 00:34:52;;;;;;;43.25;15.25;;;;;;;;;;4975623;28;20102;-65
2022/10/14 00:37:18;;;;;;;50.22;15.15;;;;;;;;;;4973375;28;20098;-65
2022/10/14 00:39:43;;;;;;;41.22;14.38;;;;;;;;;;4993057;28;20019;-65
2022/10/14 00:42:12;;;;;;;40.10;16.13;;;;;;;;;;4974556;28;20015;-67
2022/10/14 00:44:44;;;;;;;46.58;16.88;;;;;;;;;;4979610;28;20513;-64
2022/10/14 00:47:09;;;;;;;38.10;14.82;;;;;;;;;;4987572;28;20018;-65
2022/10/14 00:49:39;;;;;;;40.08;15.00;;;;;;;;;;4981983;28;20018;-65
2022/10/14 00:52:09;;;;;;;51.28;16.27;;;;;;;;;;4990268;28;20084;-65
2022/10/14 00:54:37;;;;;;;33.72;14.88;;;;;;;;;;4984458;28;20461;-65
2022/10/14 00:57:02;;;;;;;33.83;15.32;;;;;;;;;;4987090;28;20046;-65
2022/10/14 00:59:28;;;;;;;39.83;15.60;;;;;;;;;;4983775;28;20030;-66
2022/10/14 01:01:53;;;;;;;36.30;15.32;;;;;;;;;;4989406;28;20029;-66
2022/10/14 01:04:18;;;;;;;52.43;15.97;;;;;;;;;;4956679;28;20583;-65
2022/10/14 01:06:52;;;;;;;50.08;16.77;;;;;;;;;;4978737;28;20272;-66
2022/10/14 01:09:23;;;;;;;49.03;17.05;;;;;;;;;;4993080;28;20049;-65
2022/10/14 01:11:59;;;;;;;43.50;16.67;;;;;;;;;;4979953;28;20559;-65
2022/10/14 01:14:31;;;;;;;32.22;14.02;;;;;;;;;;4981101;28;20038;-65
2022/10/14 01:16:57;;;;;;;33.17;15.75;;;;;;;;;;4974901;28;20102;-66
2022/10/14 01:19:36;;;;;;;38.78;16.55;;;;;;;;;;4976340;28;20058;-65
2022/10/14 01:22:07;;;;;;;41.25;16.17;;;;;;;;;;4992399;28;20019;-66
2022/10/14 01:24:51;;;;;;;46.30;15.35;;;;;;;;;;4980081;28;20034;-64
2022/10/14 01:27:27;;;;;;;37.38;16.77;;;;;;;;;;4985256;28;20031;-66
2022/10/14 01:30:13;;;;;;;41.45;15.93;;;;;;;;;;4991267;28;20018;-65
2022/10/14 01:32:45;;;;;;;37.05;14.95;;;;;;;;;;4978919;28;20027;-66
2022/10/14 01:35:10;;;;;;;34.75;15.25;;;;;;;;;;4991118;28;20037;-65
2022/10/14 01:37:37;;;;;;;37.55;16.20;;;;;;;;;;4983590;28;20019;-65
2022/10/14 01:40:07;;;;;;;41.97;16.38;;;;;;;;;;4990718;28;20275;-64
2022/10/14 01:42:34;;;;;;;46.63;16.83;;;;;;;;;;4977590;28;20014;-64
2022/10/14 01:45:05;;;;;;;40.35;17.05;;;;;;;;;;4982193;28;20038;-66
2022/10/14 01:47:32;;;;;;;45.03;17.15;;;;;;;;;;4975926;28;20145;-65
2022/10/14 01:50:01;;;;;;;45.05;16.65;;;;;;;;;;4991314;28;20026;-64
2022/10/14 01:52:29;;;;;;;42.42;16.13;;;;;;;;;;4987479;28;20022;-63
2022/10/14 01:54:55;;;;;;;39.35;17.17;;;;;;;;;;4981855;28;20030;-65
2022/10/14 01:57:23;;;;;;;38.08;16.60;;;;;;;;;;4986967;28;20026;-66
2022/10/14 01:59:49;;;;;;;39.95;16.63;;;;;;;;;;4981216;28;20018;-66
2022/10/14 02:02:14;;;;;;;44.38;17.42;;;;;;;;;;4990214;28;20120;-64
2022/10/14 02:04:39;;;;;;;42.45;15.48;;;;;;;;;;4990183;28;20022;-65
2022/10/14 02:07:25;;;;;;;38.60;16.67;;;;;;;;;;4979331;28;20029;-64
2022/10/14 02:09:53;;;;;;;38.53;16.50;;;;;;;;;;4959207;28;20113;-66
2022/10/14 02:12:19;;;;;;;38.47;17.50;;;;;;;;;;4978070;28;20026;-66
2022/10/14 02:14:44;;;;;;;36.83;16.23;;;;;;;;;;4986330;28;20034;-65
2022/10/14 02:17:20;;;;;;;40.35;15.95;;;;;;;;;;4953487;28;20022;-65
2022/10/14 02:19:57;;;;;;;47.47;18.20;;;;;;;;;;4974399;28;20022;-64
2022/10/14 02:22:39;;;;;;;37.65;16.60;;;;;;;;;;4990842;28;20038;-65
2022/10/14 02:25:19;;;;;;;32.17;15.75;;;;;;;;;;4978013;28;20026;-65
2022/10/14 02:27:45;;;;;;;42.08;17.65;;;;;;;;;;4972441;28;20022;-66
2022/10/14 02:30:11;;;;;;;46.78;17.67;;;;;;;;;;4977362;28;20030;-64
2022/10/14 02:32:37;;;;;;;41.53;16.50;;;;;;;;;;4990291;28;20038;-64
2022/10/14 02:35:03;;;;;;;53.30;17.67;;;;;;;;;;4978426;28;20022;-65
2022/10/14 02:37:30;;;;;;;38.97;16.60;;;;;;;;;;4989684;28;20022;-64
2022/10/14 02:40:01;;;;;;;49.08;17.63;;;;;;;;;;4976215;28;20020;-66
2022/10/14 02:42:26;;;;;;;36.35;15.13;;;;;;;;;;4953668;28;20026;-68
2022/10/14 02:44:53;;;;;;;37.17;15.85;;;;;;;;;;4985007;28;20373;-65
2022/10/14 02:47:18;;;;;;;41.60;16.40;;;;;;;;;;4983839;28;20563;-67
2022/10/14 02:49:44;;;;;;;49.08;17.08;;;;;;;;;;4985797;28;20034;-65
2022/10/14 02:52:09;;;;;;;46.92;18.58;;;;;;;;;;4960326;28;20039;-65
2022/10/14 02:54:34;;;;;;;34.95;16.25;;;;;;;;;;4970375;28;20034;-64
2022/10/14 02:56:59;;;;;;;40.08;16.45;;;;;;;;;;4969654;28;20023;-66
2022/10/14 02:59:24;;;;;;;51.50;15.60;;;;;;;;;;4970504;28;20606;-65
2022/10/14 03:01:50;;;;;;;38.45;16.98;;;;;;;;;;4970637;28;20442;-65
2022/10/14 03:04:15;;;;;;;41.67;16.10;;;;;;;;;;4965412;28;20023;-64
2022/10/14 03:06:40;;;;;;;37.58;17.25;;;;;;;;;;4976139;28;20508;-66
2022/10/14 03:09:05;;;;;;;41.45;17.38;;;;;;;;;;4969386;28;20023;-66
2022/10/14 03:11:31;;;;;;;40.05;17.15;;;;;;;;;;4968583;28;20357;-66
2022/10/14 03:13:56;;;;;;;47.97;17.93;;;;;;;;;;4982481;28;20058;-64
2022/10/14 03:16:21;;;;;;;42.65;16.92;;;;;;;;;;4970150;28;20249;-65
2022/10/14 03:18:46;;;;;;;36.92;17.20;;;;;;;;;;4970902;28;20105;-66
2022/10/14 03:21:12;;;;;;;35.83;17.23;;;;;;;;;;4987916;28;20019;-64
2022/10/14 03:23:37;;;;;;;35.90;16.88;;;;;;;;;;4976690;28;20054;-65
2022/10/14 03:26:02;;;;;;;37.97;16.87;;;;;;;;;;4990326;28;20101;-65
2022/10/14 03:28:27;;;;;;;37.60;17.20;;;;;;;;;;4989031;28;20287;-64
2022/10/14 03:30:52;;;;;;;46.00;18.43;;;;;;;;;;4980484;28;20735;-67
2022/10/14 03:33:17;;;;;;;47.88;19.45;;;;;;;;;;4983121;28;20308;-66
2022/10/14 03:35:43;;;;;;;48.85;18.73;;;;;;;;;;4958463;28;20026;-65
2022/10/14 03:38:08;;;;;;;38.28;17.23;;;;;;;;;;4961169;28;20109;-66
2022/10/14 03:40:33;;;;;;;46.72;17.70;;;;;;;;;;4977446;28;20041;-65
2022/10/14 03:43:02;;;;;;;41.10;16.00;;;;;;;;;;4952698;28;20030;-64
2022/10/14 03:45:27;;;;;;;34.63;16.40;;;;;;;;;;4977916;28;20459;-66
2022/10/14 03:47:53;;;;;;;40.67;16.70;;;;;;;;;;4988970;28;20030;-64
2022/10/14 03:50:18;;;;;;;47.40;19.88;;;;;;;;;;4976662;28;20045;-65
2022/10/14 03:52:43;;;;;;;39.10;17.40;;;;;;;;;;4988057;28;20030;-67
2022/10/14 03:55:08;;;;;;;42.78;18.33;;;;;;;;;;4976911;28;20022;-64
2022/10/14 03:57:34;;;;;;;46.80;18.98;;;;;;;;;;4985458;28;20064;-64
2022/10/14 03:59:59;;;;;;;47.63;17.42;;;;;;;;;;4971896;28;20576;-65
2022/10/14 04:02:24;;;;;;;43.73;17.20;;;;;;;;;;4987783;28;20041;-65
2022/10/14 04:04:49;;;;;;;40.25;18.85;;;;;;;;;;4986373;28;20268;-64
2022/10/14 04:07:14;;;;;;;38.27;17.57;;;;;;;;;;4975982;28;20026;-65
2022/10/14 04:09:40;;;;;;;36.42;17.13;;;;;;;;;;4972856;28;20293;-66
2022/10/14 04:12:05;;;;;;;48.40;18.30;;;;;;;;;;4979029;28;20099;-65
2022/10/14 04:14:30;;;;;;;44.03;17.55;;;;;;;;;;4982244;28;20077;-64
2022/10/14 04:16:55;;;;;;;46.28;18.88;;;;;;;;;;4975054;28;20380;-66
2022/10/14 04:19:20;;;;;;;43.27;18.50;;;;;;;;;;4970663;28;20540;-65
2022/10/14 04:21:46;;;;;;;60.03;19.65;;;;;;;;;;4979588;28;20308;-65
2022/10/14 04:24:11;;;;;;;46.28;18.60;;;;;;;;;;4985027;28;20040;-65
2022/10/14 04:26:37;;;;;;;53.20;18.92;;;;;;;;;;4972977;28;20071;-68
2022/10/14 04:29:02;;;;;;;42.65;17.48;;;;;;;;;;4980761;28;20484;-65
2022/10/14 04:31:27;;;;;;;38.55;18.08;;;;;;;;;;4972891;28;20525;-64
2022/10/14 04:33:52;;;;;;;46.03;19.67;;;;;;;;;;4973458;28;20106;-66
2022/10/14 04:36:17;;;;;;;46.60;17.50;;;;;;;;;;4985930;28;20033;-64
2022/10/14 04:38:43;;;;;;;47.20;18.27;;;;;;;;;;4989216;28;20042;-64
2022/10/14 04:41:08;;;;;;;50.00;20.27;;;;;;;;;;4984189;28;20472;-66
2022/10/14 04:43:33;;;;;;;45.73;16.97;;;;;;;;;;4976255;28;20018;-65
2022/10/14 04:45:59;;;;;;;40.92;18.05;;;;;;;;;;4987981;28;20775;-66
2022/10/14 04:48:24;;;;;;;50.13;19.95;;;;;;;;;;4973331;28;20494;-65
2022/10/14 04:50:50;;;;;;;45.35;20.45;;;;;;;;;;4990503;28;20030;-65
2022/10/14 04:53:16;;;;;;;44.60;18.95;;;;;;;;;;4977084;28;20029;-65
2022/10/14 04:56:06;;;;;;;42.08;18.95;;;;;;;;;;4963921;28;20026;-73
2022/10/14 04:58:31;;;;;;;51.65;20.05;;;;;;;;;;4991206;28;20388;-67
2022/10/14 05:00:56;;;;;;;51.75;19.73;;;;;;;;;;4992759;28;20453;-68
2022/10/14 05:03:22;;;;;;;49.83;19.55;;;;;;;;;;4991352;28;20030;-65
2022/10/14 05:05:48;;;;;;;45.17;18.30;;;;;;;;;;4985727;28;20508;-68
2022/10/14 05:08:14;;;;;;;48.63;19.10;;;;;;;;;;4967332;28;20085;-69
2022/10/14 05:10:39;;;;;;;52.47;20.08;;;;;;;;;;4973834;28;20695;-67
2022/10/14 05:13:04;;;;;;;51.35;20.98;;;;;;;;;;4991377;28;20165;-66
2022/10/14 05:15:30;;;;;;;53.88;20.25;;;;;;;;;;4981184;28;20025;-66
2022/10/14 05:17:55;;;;;;;50.78;19.13;;;;;;;;;;4981159;28;20118;-66
2022/10/14 05:20:20;;;;;;;58.30;19.52;;;;;;;;;;4971227;28;20046;-68
2022/10/14 05:22:46;;;;;;;44.53;20.30;;;;;;;;;;4981397;28;20543;-67
2022/10/14 05:25:11;;;;;;;66.85;21.50;;;;;;;;;;4972065;28;20030;-69
2022/10/14 05:27:36;;;;;;;43.05;18.98;;;;;;;;;;4980813;28;20041;-66
2022/10/14 05:30:02;;;;;;;51.83;19.88;;;;;;;;;;4986600;28;20041;-67
2022/10/14 05:32:27;;;;;;;49.40;21.05;;;;;;;;;;4983172;28;20098;-67
2022/10/14 05:34:52;;;;;;;40.17;18.85;;;;;;;;;;4969191;28;20019;-68
2022/10/14 05:37:18;;;;;;;49.80;19.58;;;;;;;;;;4977343;28;20045;-65
2022/10/14 05:39:43;;;;;;;49.13;19.63;;;;;;;;;;4975287;28;20034;-69
2022/10/14 05:42:08;;;;;;;48.50;18.87;;;;;;;;;;4971640;28;20126;-65
2022/10/14 05:44:33;;;;;;;53.42;20.30;;;;;;;;;;4971092;28;20272;-68
2022/10/14 05:46:58;;;;;;;55.15;22.55;;;;;;;;;;4980951;28;20014;-65
2022/10/14 05:49:24;;;;;;;52.95;20.60;;;;;;;;;;4987291;28;20125;-65
2022/10/14 05:51:49;;;;;;;57.28;21.73;;;;;;;;;;4971648;28;20093;-67
2022/10/14 05:54:14;;;;;;;59.22;21.77;;;;;;;;;;4971425;28;20039;-68
2022/10/14 05:56:39;;;;;;;45.08;19.63;;;;;;;;;;4970826;28;20030;-66
2022/10/14 05:59:05;;;;;;;62.47;21.88;;;;;;;;;;4970301;28;20085;-66
2022/10/14 06:01:33;;;;;;;48.88;21.33;;;;;;;;;;4959560;28;20154;-68
2022/10/14 06:03:58;;;;;;;67.25;23.67;;;;;;;;;;4977595;28;20027;-66
2022/10/14 06:06:24;;;;;;;59.45;22.40;;;;;;;;;;4960193;28;20452;-67
2022/10/14 06:08:49;;;;;;;63.42;23.17;;;;;;;;;;4982735;28;20022;-67
2022/10/14 06:11:14;;;;;;;58.55;23.00;;;;;;;;;;4970925;28;20031;-69
2022/10/14 06:13:39;;;;;;;56.78;22.40;;;;;;;;;;4970848;28;20023;-67
2022/10/14 06:16:08;;;;;;;54.72;22.73;;;;;;;;;;4970654;28;20026;-66
2022/10/14 06:18:33;;;;;;;;;;;;;;;;;;4975232;28;20177;-73
2022/10/14 06:20:59;;;;;;;52.00;20.73;;;;;;;;;;4979852;28;19955;-68
2022/10/14 06:23:24;;;;;;;53.95;20.85;;;;;;;;;;4977474;28;20126;-66
2022/10/14 06:25:49;;;;;;;49.75;22.38;;;;;;;;;;4990035;28;20037;-66
2022/10/14 06:28:14;;;;;;;62.78;23.35;;;;;;;;;;4970293;28;20527;-66
2022/10/14 06:30:40;;;;;;;64.20;22.95;;;;;;;;;;4979628;28;20514;-68
2022/10/14 06:33:05;;;;;;;59.03;21.95;;;;;;;;;;4977276;28;20105;-65
2022/10/14 06:35:30;;;;;;;57.83;22.48;;;;;;;;;;4982233;28;20025;-67
2022/10/14 06:37:55;;;;;;;56.17;21.45;;;;;;;;;;4953320;28;20061;-68
2022/10/14 06:40:21;;;;;;;53.20;21.23;;;;;;;;;;4973315;28;20026;-67
2022/10/14 06:42:46;;;;;;;50.28;20.17;;;;;;;;;;4985077;28;20101;-66
2022/10/14 06:45:11;;;;;;;48.38;19.70;;;;;;;;;;4991427;28;20022;-69
2022/10/14 06:47:36;;;;;;;53.28;19.30;;;;;;;;;;4973325;28;20034;-66
2022/10/14 06:50:01;;;;;;;46.30;19.50;;;;;;;;;;4984265;28;20448;-67
2022/10/14 06:52:27;;;;;;;50.25;18.27;;;;;;;;;;4971503;28;20452;-66
2022/10/14 06:54:52;;;;;;;47.50;18.77;;;;;;;;;;4971038;28;20093;-68
2022/10/14 06:57:17;;;;;;;51.60;19.45;;;;;;;;;;4970272;28;20477;-66
2022/10/14 06:59:43;;;;;;;59.30;20.45;;;;;;;;;;4970729;28;20045;-66
2022/10/14 07:02:09;;;;;;;51.80;18.13;;;;;;;;;;4976448;28;20022;-67
2022/10/14 07:04:34;;;;;;;40.20;17.63;;;;;;;;;;4970425;28;20046;-67
2022/10/14 07:06:59;;;;;;;53.58;18.00;;;;;;;;;;4978341;28;20577;-66
2022/10/14 07:09:24;;;;;;;45.92;17.35;;;;;;;;;;4970674;28;20023;-67
2022/10/14 07:11:50;;;;;;;45.50;17.95;;;;;;;;;;4970520;28;20023;-69
2022/10/14 07:14:15;;;;;;;52.42;19.15;;;;;;;;;;4969758;28;20033;-67
2022/10/14 07:16:43;;;;;;;39.35;18.40;;;;;;;;;;4971544;28;20026;-68
2022/10/14 07:19:08;;;;;;;43.03;17.83;;;;;;;;;;4982646;28;20021;-67
2022/10/14 07:21:34;;;;;;;50.22;18.48;;;;;;;;;;4970471;28;20031;-66
2022/10/14 07:23:59;;;;;;;40.63;16.20;;;;;;;;;;4990102;28;20527;-67
2022/10/14 07:26:24;;;;;;;45.67;17.92;;;;;;;;;;4976517;28;20075;-67
2022/10/14 07:28:49;;;;;;;41.03;17.08;;;;;;;;;;4989127;28;20102;-69
2022/10/14 07:31:15;;;;;;;43.03;17.90;;;;;;;;;;4989397;28;20034;-68
2022/10/14 07:33:40;;;;;;;38.53;16.80;;;;;;;;;;4980885;28;20035;-66
2022/10/14 07:36:10;;;;;;;31.85;15.20;;;;;;;;;;4969389;28;20847;-69
2022/10/14 07:38:36;;;;;;;37.53;15.93;;;;;;;;;;4970108;28;20082;-68
2022/10/14 07:41:15;;;;;;;46.33;17.02;;;;;;;;;;4955529;28;20486;-67
2022/10/14 07:43:41;;;;;;;40.25;16.45;;;;;;;;;;4970924;28;20142;-68
2022/10/14 07:46:07;;;;;;;42.03;16.23;;;;;;;;;;4969922;28;20062;-69
2022/10/14 07:48:32;;;;;;;31.98;15.25;;;;;;;;;;4960701;28;20022;-68
2022/10/14 07:50:58;;;;;;;38.88;14.77;;;;;;;;;;4974305;28;20057;-67
2022/10/14 07:53:24;;;;;;;40.88;15.75;;;;;;;;;;4959531;28;20412;-66
2022/10/14 07:55:53;;;;;;;37.72;16.05;;;;;;;;;;4974333;28;20028;-68
2022/10/14 07:58:21;;;;;;;36.67;15.73;;;;;;;;;;4970178;28;20038;-68
2022/10/14 08:00:47;;;;;;;38.63;15.23;;;;;;;;;;4975332;28;20027;-67
2022/10/14 08:03:12;;;;;;;39.58;16.77;;;;;;;;;;4982509;28;20037;-67
2022/10/14 08:05:38;;;;;;;42.08;17.80;;;;;;;;;;4974845;28;20027;-67
2022/10/14 08:08:03;;;;;;;32.53;14.63;;;;;;;;;;4989848;28;20030;-67
2022/10/14 08:10:28;;;;;;;37.95;14.38;;;;;;;;;;4973446;28;20256;-69
2022/10/14 08:12:53;;;;;;;37.87;15.10;;;;;;;;;;4973381;28;20026;-67
2022/10/14 08:15:19;;;;;;;48.75;15.05;;;;;;;;;;4973282;28;20256;-66
2022/10/14 08:17:44;;;;;;;46.47;17.07;;;;;;;;;;4980578;28;20065;-66
2022/10/14 08:20:09;;;;;;;38.55;14.05;;;;;;;;;;4979770;28;20264;-67
2022/10/14 08:22:34;;;;;;;35.55;14.60;;;;;;;;;;4984511;28;20041;-67
2022/10/14 08:25:00;;;;;;;48.97;14.57;;;;;;;;;;4986225;28;20034;-66
2022/10/14 08:27:25;;;;;;;36.80;14.32;;;;;;;;;;4955761;28;20675;-66
2022/10/14 08:29:50;;;;;;;31.55;13.63;;;;;;;;;;4974611;28;20362;-67
2022/10/14 08:32:16;;;;;;;28.30;14.05;;;;;;;;;;4987543;28;20015;-67
2022/10/14 08:34:41;;;;;;;38.13;13.60;;;;;;;;;;4991000;28;20015;-66
2022/10/14 08:37:09;;;;;;;33.70;12.95;;;;;;;;;;4979952;28;20619;-69
2022/10/14 08:39:35;;;;;;;29.48;12.50;;;;;;;;;;4990976;28;20025;-67
2022/10/14 08:42:19;;;;;;;31.48;13.38;;;;;;;;;;4980609;28;20034;-68
2022/10/14 08:44:48;;;;;;;37.45;13.20;;;;;;;;;;4991187;28;20125;-68
2022/10/14 08:47:14;;;;;;;28.42;12.90;;;;;;;;;;4982249;28;20029;-68
2022/10/14 08:49:39;;;;;;;26.13;13.52;;;;;;;;;;4987733;28;20026;-68
2022/10/14 08:52:28;;;;;;;39.55;13.40;;;;;;;;;;4972303;28;20018;-67
2022/10/14 08:54:56;;;;;;;28.65;12.43;;;;;;;;;;4968921;28;20219;-67
2022/10/14 08:57:24;;;;;;;33.47;13.63;;;;;;;;;;4978834;28;20046;-68
2022/10/14 08:59:50;;;;;;;28.70;11.50;;;;;;;;;;4984039;28;20045;-67
2022/10/14 09:02:20;;;;;;;36.28;12.18;;;;;;;;;;4954554;28;20117;-66
2022/10/14 09:04:45;;;;;;;83.18;12.40;;;;;;;;;;4953693;28;20058;-67
2022/10/14 09:07:15;;;;;;;32.83;11.27;;;;;;;;;;4980850;28;20119;-68
2022/10/14 09:09:42;;;;;;;32.67;11.80;;;;;;;;;;4971980;28;20055;-68
2022/10/14 09:12:12;;;;;;;35.75;10.45;;;;;;;;;;4987426;28;20022;-68
2022/10/14 09:14:41;;;;;;;28.58;12.05;;;;;;;;;;4982383;28;20019;-68
2022/10/14 09:17:06;;;;;;;;;;;;;;;;;;4985064;28;20026;-68
2022/10/14 09:19:33;;;;;;;28.67;11.70;;;;;;;;;;4980406;28;19913;-67
2022/10/14 09:21:59;;;;;;;29.65;10.93;;;;;;;;;;4984648;28;20251;-68
2022/10/14 09:24:27;;;;;;;25.08;10.45;;;;;;;;;;4982936;28;20046;-68
2022/10/14 09:27:05;;;;;;;21.65;9.50;;;;;;;;;;4977804;28;20030;-67
2022/10/14 09:29:51;;;;;;;21.38;9.95;;;;;;;;;;4991533;28;20058;-66
2022/10/14 09:32:22;;;;;;;19.85;8.77;;;;;;;;;;4968979;28;20316;-69
2022/10/14 09:34:48;;;;;;;29.67;9.43;;;;;;;;;;4987027;28;20037;-69
2022/10/14 09:37:19;;;;;;;17.10;7.90;;;;;;;;;;4990890;28;20476;-68
2022/10/14 09:39:45;;;;;;;17.20;7.72;;;;;;;;;;4976322;28;20030;-67
2022/10/14 09:42:18;;;;;;;16.58;6.85;;;;;;;;;;4981787;28;20020;-66
2022/10/14 09:44:43;;;;;;;17.40;8.13;;;;;;;;;;4978014;28;20032;-68
2022/10/14 09:47:11;;;;;;;16.67;7.15;;;;;;;;;;4979908;28;20023;-67
2022/10/14 09:49:39;;;;;;;22.90;6.88;;;;;;;;;;4984836;28;20103;-66
2022/10/14 09:52:04;;;;;;;22.47;6.30;;;;;;;;;;4954156;28;20023;-68
2022/10/14 09:54:30;;;;;;;14.70;5.72;;;;;;;;;;4953414;28;20688;-68
2022/10/14 09:57:02;;;;;;;13.45;5.72;;;;;;;;;;4971012;28;20082;-67
2022/10/14 09:59:27;;;;;;;12.48;5.35;;;;;;;;;;4975528;28;20022;-66
2022/10/14 10:02:16;;;;;;;15.43;4.93;;;;;;;;;;4984709;28;20056;-65
2022/10/14 10:04:46;;;;;;;13.05;5.55;;;;;;;;;;4979443;28;20105;-66
2022/10/14 10:07:26;;;;;;;10.05;4.13;;;;;;;;;;4961533;28;20087;-68
2022/10/14 10:09:58;;;;;;;7.85;3.90;;;;;;;;;;4971792;28;20085;-68
2022/10/14 10:12:28;;;;;;;7.10;3.30;;;;;;;;;;4971172;28;20081;-66
2022/10/14 10:14:58;;;;;;;8.23;3.22;;;;;;;;;;4970910;28;20150;-68
2022/10/14 10:17:26;;;;;;;9.50;3.65;;;;;;;;;;4971242;28;20023;-68
2022/10/14 10:20:04;;;;;;;8.25;3.40;;;;;;;;;;4989113;28;20034;-68
2022/10/14 10:22:37;;;;;;;9.95;3.90;;;;;;;;;;4982188;28;20025;-66
2022/10/14 10:25:03;;;;;;;11.05;3.30;;;;;;;;;;4984470;28;20026;-68
2022/10/14 10:27:28;;;;;;;7.70;3.30;;;;;;;;;;4953512;28;20041;-67
2022/10/14 10:29:56;;;;;;;12.70;3.47;;;;;;;;;;4972511;28;20488;-67
2022/10/14 10:32:30;;;;;;;12.55;2.88;;;;;;;;;;4990633;28;20248;-69
2022/10/14 10:35:10;;;;;;;6.00;2.92;;;;;;;;;;4976643;28;20026;-67
2022/10/14 10:37:36;;;;;;;10.27;3.00;;;;;;;;;;4972104;28;20573;-70
2022/10/14 10:40:07;;;;;;;7.60;2.67;;;;;;;;;;4973621;28;20101;-65
2022/10/14 10:42:58;;;;;;;8.10;3.03;;;;;;;;;;4983929;28;20266;-67
2022/10/14 10:45:42;;;;;;;7.10;2.78;;;;;;;;;;4974460;28;20038;-66
2022/10/14 10:48:19;;;;;;;8.75;3.08;;;;;;;;;;4986279;28;20022;-67
2022/10/14 10:51:25;;;;;;;5.55;2.42;;;;;;;;;;4982093;28;20014;-69
2022/10/14 10:53:50;;;;;;;10.05;2.65;;;;;;;;;;4898152;29;20064;-68
2022/10/14 10:56:25;;;;;;;7.57;2.50;;;;;;;;;;4909349;29;20187;-67
2022/10/14 10:59:10;;;;;;;6.65;2.47;;;;;;;;;;4897595;29;20255;-67
2022/10/14 11:01:41;;;;;;;10.48;2.97;;;;;;;;;;4863141;29;20036;-66
2022/10/14 11:04:10;;;;;;;6.07;2.83;;;;;;;;;;4903268;29;20032;-68
2022/10/14 11:12:19;;;;;;;6.20;2.28;;;;;;;;;;4906936;29;20076;-68
2022/10/14 11:15:02;;;;;;;6.22;3.08;;;;;;;;;;4901959;29;20398;-67
2022/10/14 11:17:32;;;;;;;7.38;3.10;;;;;;;;;;4897499;29;20032;-68
2022/10/14 11:20:06;;;;;;;6.35;2.90;;;;;;;;;;4893789;29;20028;-66
2022/10/14 11:22:43;;;;;;;7.15;2.90;;;;;;;;;;4901697;29;20592;-67
2022/10/14 11:25:15;;;;;;;7.00;2.92;;;;;;;;;;4949355;28;20482;-69
2022/10/14 11:27:43;;;;;;;6.05;2.50;;;;;;;;;;4968214;28;20460;-68
2022/10/14 11:30:12;;;;;;;8.48;2.95;;;;;;;;;;4984033;28;20101;-67
2022/10/14 11:32:56;;;;;;;6.82;2.63;;;;;;;;;;4963200;28;20078;-67
2022/10/14 11:35:32;;;;;;;6.25;2.47;;;;;;;;;;4992854;28;20034;-69
2022/10/14 11:38:15;;;;;;;8.55;2.67;;;;;;;;;;4980563;28;20038;-66
2022/10/14 11:40:49;;;;;;;7.30;2.65;;;;;;;;;;4983913;28;20019;-68
2022/10/14 11:43:25;;;;;;;9.45;2.08;;;;;;;;;;4981420;28;20062;-68
2022/10/14 11:45:58;;;;;;;4.70;2.13;;;;;;;;;;5000817;28;20026;-69
2022/10/14 11:48:37;;;;;;;5.38;2.10;;;;;;;;;;4972101;28;20057;-68
2022/10/14 11:51:08;;;;;;;10.88;3.05;;;;;;;;;;4985078;28;20093;-66
2022/10/14 11:53:33;;;;;;;5.45;2.20;;;;;;;;;;4987595;28;20019;-70
2022/10/14 11:56:04;;;;;;;9.70;2.80;;;;;;;;;;4985548;28;20006;-68
2022/10/14 11:58:30;;;;;;;6.38;2.83;;;;;;;;;;4978795;28;20649;-67
2022/10/14 12:00:58;;;;;;;6.68;3.00;;;;;;;;;;4965169;28;20393;-64
2022/10/14 12:03:42;;;;;;;9.55;2.25;;;;;;;;;;4977951;28;20025;-65
2022/10/14 12:06:11;;;;;;;9.40;2.40;;;;;;;;;;4996407;28;20771;-66
2022/10/14 12:08:45;;;;;;;5.82;2.28;;;;;;;;;;4996715;28;20129;-65
2022/10/14 12:11:13;;;;;;;8.40;2.42;;;;;;;;;;4998937;28;20065;-66
2022/10/14 12:13:40;;;;;;;9.48;2.75;;;;;;;;;;4996073;28;20026;-67
2022/10/14 12:16:09;;;;;;;6.72;3.15;;;;;;;;;;4991551;28;20104;-66
2022/10/14 12:18:35;;;;;;;4.38;2.05;;;;;;;;;;4992759;28;20030;-67
2022/10/14 12:21:06;;;;;;;4.90;2.08;;;;;;;;;;4992299;28;20061;-66
2022/10/14 12:23:52;;;;;;;8.80;2.30;;;;;;;;;;4990025;28;20030;-63
2022/10/14 12:26:23;;;;;;;5.13;2.63;;;;;;;;;;4997201;28;20551;-67
2022/10/14 12:28:49;;;;;;;6.00;1.73;;;;;;;;;;4989800;28;20052;-66
2022/10/14 12:31:20;;;;;;;5.82;1.98;;;;;;;;;;4993623;28;20061;-68
2022/10/14 12:34:04;;;;;;;5.60;2.15;;;;;;;;;;4993249;28;20052;-66
2022/10/14 12:36:30;;;;;;;7.30;3.03;;;;;;;;;;4987135;28;20071;-66
2022/10/14 12:39:14;;;;;;;5.90;2.53;;;;;;;;;;4993280;28;20569;-65
2022/10/14 12:41:42;;;;;;;5.10;2.08;;;;;;;;;;4971490;28;20347;-66
2022/10/14 12:44:13;;;;;;;6.25;2.13;;;;;;;;;;4978944;28;20477;-68
2022/10/14 12:46:42;;;;;;;4.90;2.20;;;;;;;;;;4989944;28;20042;-65
2022/10/14 12:49:15;;;;;;;4.72;2.00;;;;;;;;;;4969739;28;20030;-66
2022/10/14 12:51:51;;;;;;;5.60;2.30;;;;;;;;;;4983031;28;20034;-64
2022/10/14 12:54:16;;;;;;;6.43;2.58;;;;;;;;;;4972104;28;20490;-66
2022/10/14 12:56:43;;;;;;;4.55;2.13;;;;;;;;;;4972620;28;20037;-68
2022/10/14 12:59:19;;;;;;;5.03;2.05;;;;;;;;;;4972669;28;20015;-65
2022/10/14 13:01:44;;;;;;;5.50;2.22;;;;;;;;;;4972360;28;20037;-65
2022/10/14 13:04:16;;;;;;;13.27;2.90;;;;;;;;;;4969226;28;20038;-67
2022/10/14 13:06:42;;;;;;;5.10;2.15;;;;;;;;;;4966766;28;20023;-64
2022/10/14 13:09:10;;;;;;;9.43;2.17;;;;;;;;;;4963780;28;20495;-65
2022/10/14 13:11:37;;;;;;;4.57;2.13;;;;;;;;;;4981186;28;20023;-65
2022/10/14 13:14:18;;;;;;;5.70;2.15;;;;;;;;;;4972173;28;20093;-66
2022/10/14 13:16:43;;;;;;;5.72;2.40;;;;;;;;;;4973677;28;20023;-68
2022/10/14 13:19:28;;;;;;;7.10;2.17;;;;;;;;;;4973186;28;20114;-66
2022/10/14 13:21:54;;;;;;;5.00;1.98;;;;;;;;;;4976867;28;20571;-65
2022/10/14 13:24:22;;;;;;;6.80;2.42;;;;;;;;;;4974205;28;20018;-65
2022/10/14 13:26:50;;;;;;;6.53;1.80;;;;;;;;;;4978861;28;20022;-66
2022/10/14 13:29:34;;;;;;;5.20;2.08;;;;;;;;;;4992294;28;20026;-68
2022/10/14 13:31:59;;;;;;;4.90;1.65;;;;;;;;;;4985841;28;20467;-66
2022/10/14 13:34:42;;;;;;;6.37;2.07;;;;;;;;;;4984514;28;20113;-65
2022/10/14 13:37:25;;;;;;;8.23;2.10;;;;;;;;;;4983719;28;20649;-65
2022/10/14 13:39:51;;;;;;;6.38;2.05;;;;;;;;;;4984739;28;20030;-64
2022/10/14 13:42:22;;;;;;;8.80;2.20;;;;;;;;;;4954424;28;20029;-65
2022/10/14 13:44:48;;;;;;;12.85;2.22;;;;;;;;;;4975761;28;20046;-67
2022/10/14 13:47:13;;;;;;;9.63;2.85;;;;;;;;;;4990373;28;20072;-66
2022/10/14 13:49:42;;;;;;;6.55;2.30;;;;;;;;;;4987585;28;20031;-65
2022/10/14 13:52:14;;;;;;;10.00;2.33;;;;;;;;;;4981654;28;20170;-63
2022/10/14 13:54:40;;;;;;;11.13;2.70;;;;;;;;;;4978104;28;20018;-66
2022/10/14 13:57:08;;;;;;;6.65;2.20;;;;;;;;;;4978750;28;20118;-66
2022/10/14 13:59:40;;;;;;;10.85;2.58;;;;;;;;;;4976622;28;20022;-68
2022/10/14 14:02:11;;;;;;;6.90;2.47;;;;;;;;;;4990678;28;20023;-65
2022/10/14 14:04:37;;;;;;;10.05;3.30;;;;;;;;;;4976156;28;20027;-69
2022/10/14 14:07:03;;;;;;;10.63;3.00;;;;;;;;;;4986271;28;20033;-67
2022/10/14 14:09:29;;;;;;;7.03;2.47;;;;;;;;;;5002584;28;20017;-67
2022/10/14 14:11:57;;;;;;;8.85;2.75;;;;;;;;;;4979612;28;20029;-66
2022/10/14 14:14:34;;;;;;;4.43;2.13;;;;;;;;;;4990728;28;20044;-66
2022/10/14 14:17:00;;;;;;;9.77;2.80;;;;;;;;;;4984024;28;20081;-67
2022/10/14 14:19:47;;;;;;;7.72;2.95;;;;;;;;;;4984992;28;20018;-76
2022/10/14 14:22:26;;;;;;;9.02;2.17;;;;;;;;;;4986233;28;20023;-65
2022/10/14 14:25:10;;;;;;;5.68;2.35;;;;;;;;;;4990062;28;20023;-73
2022/10/14 14:27:35;;;;;;;12.85;3.10;;;;;;;;;;4980650;28;20022;-69
2022/10/14 14:30:07;;;;;;;14.65;3.50;;;;;;;;;;4978346;28;20080;-67
2022/10/14 14:32:32;;;;;;;11.55;2.97;;;;;;;;;;4980646;28;20135;-68
2022/10/14 14:34:58;;;;;;;22.00;3.75;;;;;;;;;;4983412;28;20091;-65
2022/10/14 14:37:23;;;;;;;10.75;3.08;;;;;;;;;;4980555;28;20479;-66
2022/10/14 14:39:56;;;;;;;14.40;3.40;;;;;;;;;;4976348;28;20162;-67